createdAt,value
2022-08-23T00:00:51.169Z,82.35
2022-08-23T00:03:23.078Z,82.16
2022-08-23T00:05:55.448Z,82.27
2022-08-23T00:08:27.591Z,82.39
2022-08-23T00:10:59.722Z,82.46
2022-08-23T00:13:47.772Z,82.28
2022-08-23T00:16:20.530Z,82.55
2022-08-23T00:18:52.797Z,82.60
2022-08-23T00:21:25.019Z,82.71
2022-08-23T00:23:57.022Z,82.55
2022-08-23T00:26:29.594Z,82.73
2022-08-23T00:29:01.820Z,82.89
2022-08-23T00:31:33.797Z,83.03
2022-08-23T00:34:05.650Z,83.20
2022-08-23T00:36:38.296Z,83.17
2022-08-23T00:39:11.403Z,83.14
2022-08-23T00:41:43.557Z,83.21
2022-08-23T00:44:37.631Z,83.18
2022-08-23T00:47:30.618Z,83.25
2022-08-23T00:50:23.308Z,83.38
2022-08-23T00:53:06.430Z,83.68
2022-08-23T00:55:40.034Z,83.52
2022-08-23T00:58:15.166Z,83.46
2022-08-23T01:00:47.433Z,83.70
2022-08-23T01:03:21.129Z,83.65
2022-08-23T01:05:59.643Z,83.62
2022-08-23T01:08:33.778Z,83.82
2022-08-23T01:11:11.209Z,83.96
2022-08-23T01:13:48.593Z,83.99
2022-08-23T01:16:27.370Z,84.12
2022-08-23T01:18:59.944Z,84.32
2022-08-23T01:21:41.376Z,84.32
2022-08-23T01:24:19.212Z,84.49
2022-08-23T01:27:07.850Z,84.33
2022-08-23T01:29:40.696Z,84.33
2022-08-23T01:32:16.742Z,84.55
2022-08-23T01:34:51.546Z,84.52
2022-08-23T01:37:24.655Z,84.57
2022-08-23T01:39:59.164Z,84.71
2022-08-23T01:42:31.157Z,84.67
2022-08-23T01:45:03.177Z,84.70
2022-08-23T01:47:35.853Z,84.91
2022-08-23T01:50:10.330Z,84.90
2022-08-23T01:52:46.795Z,85.23
2022-08-23T01:55:31.239Z,85.41
2022-08-23T01:58:08.153Z,85.48
2022-08-23T02:00:42.792Z,85.49
2022-08-23T02:03:17.826Z,85.51
2022-08-23T02:05:50.155Z,85.79
2022-08-23T02:08:40.697Z,85.71
2022-08-23T02:11:14.670Z,85.91
2022-08-23T02:13:47.689Z,85.86
2022-08-23T02:16:28.032Z,85.84
2022-08-23T02:19:02.520Z,85.95
2022-08-23T02:21:35.315Z,86.00
2022-08-23T02:24:09.972Z,86.06
2022-08-23T02:26:46.441Z,86.31
2022-08-23T02:29:21.733Z,86.35
2022-08-23T02:31:55.915Z,86.66
2022-08-23T02:34:28.809Z,86.90
2022-08-23T02:37:01.009Z,87.26
2022-08-23T02:39:34.129Z,87.18
2022-08-23T02:42:07.092Z,87.39
2022-08-23T02:44:40.347Z,87.35
2022-08-23T02:47:12.648Z,87.50
2022-08-23T02:49:47.212Z,87.43
2022-08-23T02:52:18.997Z,87.81
2022-08-23T02:54:51.239Z,87.85
2022-08-23T02:57:25.366Z,87.93
2022-08-23T02:59:59.098Z,88.09
2022-08-23T03:02:31.285Z,88.42
2022-08-23T03:05:03.547Z,88.16
2022-08-23T03:07:35.580Z,88.13
2022-08-23T03:10:10.481Z,88.11
2022-08-23T03:12:46.443Z,88.15
2022-08-23T03:15:19.056Z,88.03
2022-08-23T03:17:51.427Z,88.21
2022-08-23T03:20:23.674Z,88.11
2022-08-23T03:22:56.399Z,88.13
2022-08-23T03:25:30.038Z,88.16
2022-08-23T03:28:14.113Z,88.27
2022-08-23T03:30:49.023Z,88.45
2022-08-23T03:33:21.489Z,88.64
2022-08-23T03:35:54.147Z,88.69
2022-08-23T03:38:26.160Z,88.64
2022-08-23T03:40:58.546Z,88.77
2022-08-23T03:43:30.871Z,88.72
2022-08-23T03:46:02.677Z,88.80
2022-08-23T03:48:35.471Z,88.82
2022-08-23T03:51:08.624Z,88.90
2022-08-23T03:53:40.589Z,89.03
2022-08-23T03:56:12.570Z,89.10
2022-08-23T03:58:44.554Z,89.12
2022-08-23T04:01:17.118Z,89.28
2022-08-23T04:03:49.622Z,89.44
2022-08-23T04:06:21.823Z,89.36
2022-08-23T04:08:54.783Z,89.53
2022-08-23T04:11:27.675Z,89.58
2022-08-23T04:14:06.389Z,89.44
2022-08-23T04:16:38.992Z,89.62
2022-08-23T04:19:14.344Z,89.55
2022-08-23T04:21:54.290Z,89.74
2022-08-23T04:24:27.294Z,89.70
2022-08-23T04:26:59.230Z,89.90
2022-08-23T04:29:34.044Z,90.06
2022-08-23T04:32:09.755Z,90.22
2022-08-23T04:34:45.329Z,90.37
2022-08-23T04:37:18.697Z,90.68
2022-08-23T04:40:08.746Z,90.81
2022-08-23T04:42:45.918Z,90.81
2022-08-23T04:45:18.302Z,90.86
2022-08-23T04:47:53.111Z,90.77
2022-08-23T04:50:25.360Z,91.07
2022-08-23T04:53:22.321Z,91.07
2022-08-23T04:56:03.596Z,91.07
2022-08-23T04:58:37.110Z,91.08
2022-08-23T05:01:10.743Z,91.11
2022-08-23T05:03:43.386Z,91.23
2022-08-23T05:06:16.036Z,91.20
2022-08-23T05:08:50.178Z,90.99
2022-08-23T05:11:23.289Z,91.09
2022-08-23T05:13:55.247Z,91.19
2022-08-23T05:16:27.784Z,91.19
2022-08-23T05:19:04.825Z,91.47
2022-08-23T05:21:38.640Z,91.39
2022-08-23T05:24:13.608Z,91.28
2022-08-23T05:26:46.314Z,91.34
2022-08-23T05:29:18.805Z,91.39
2022-08-23T05:31:53.940Z,91.54
2022-08-23T05:34:26.907Z,91.56
2022-08-23T05:37:01.589Z,91.56
2022-08-23T05:39:37.670Z,91.48
2022-08-23T05:42:14.264Z,91.46
2022-08-23T05:44:46.587Z,91.49
2022-08-23T05:47:23.710Z,91.63
2022-08-23T05:50:26.016Z,91.51
2022-08-23T05:52:57.936Z,91.39
2022-08-23T05:55:34.741Z,91.55
2022-08-23T05:58:23.861Z,91.43
2022-08-23T06:00:55.745Z,91.57
2022-08-23T06:03:28.119Z,91.41
2022-08-23T06:06:01.566Z,91.12
2022-08-23T06:08:35.053Z,91.12
2022-08-23T06:11:11.098Z,91.29
2022-08-23T06:13:50.309Z,91.03
2022-08-23T06:16:26.360Z,91.20
2022-08-23T06:18:59.654Z,91.00
2022-08-23T06:21:51.207Z,90.86
2022-08-23T06:24:37.552Z,90.66
2022-08-23T06:27:20.657Z,90.79
2022-08-23T06:29:52.538Z,90.96
2022-08-23T06:32:36.351Z,90.77
2022-08-23T06:35:37.700Z,90.70
2022-08-23T06:38:24.872Z,90.60
2022-08-23T06:41:17.104Z,90.36
2022-08-23T06:44:08.317Z,90.51
2022-08-23T06:46:59.279Z,90.61
2022-08-23T06:49:31.536Z,90.70
2022-08-23T06:52:05.561Z,90.68
2022-08-23T06:55:00.400Z,90.61
2022-08-23T06:57:45.011Z,90.69
2022-08-23T07:00:36.169Z,90.61
2022-08-23T07:03:27.645Z,90.75
2022-08-23T07:06:23.178Z,90.64
2022-08-23T07:08:55.465Z,90.66
2022-08-23T07:11:31.552Z,90.38
2022-08-23T07:14:06.421Z,90.44
2022-08-23T07:16:41.550Z,90.34
2022-08-23T07:19:13.741Z,90.65
2022-08-23T07:21:48.734Z,90.68
2022-08-23T07:24:22.629Z,90.43
2022-08-23T07:26:56.915Z,90.39
2022-08-23T07:29:30.086Z,90.68
2022-08-23T07:32:02.224Z,90.41
2022-08-23T07:34:34.551Z,90.50
2022-08-23T07:37:11.473Z,90.15
2022-08-23T07:39:48.178Z,90.07
2022-08-23T07:42:23.187Z,90.03
2022-08-23T07:44:58.788Z,89.96
2022-08-23T07:47:32.941Z,90.00
2022-08-23T07:50:07.061Z,89.79
2022-08-23T07:52:39.298Z,89.73
2022-08-23T07:55:12.421Z,89.79
2022-08-23T07:58:03.906Z,89.33
2022-08-23T08:00:35.763Z,89.43
2022-08-23T08:03:27.227Z,89.48
2022-08-23T08:06:20.068Z,89.29
2022-08-23T08:08:52.999Z,89.14
2022-08-23T08:11:32.334Z,89.15
2022-08-23T08:14:10.238Z,89.15
2022-08-23T08:16:48.784Z,88.94
2022-08-23T08:19:25.032Z,88.89
2022-08-23T08:22:15.729Z,88.91
2022-08-23T08:25:08.095Z,88.95
2022-08-23T08:27:41.234Z,88.82
2022-08-23T08:30:15.584Z,88.42
2022-08-23T08:32:48.109Z,88.48
2022-08-23T08:35:20.201Z,88.22
2022-08-23T08:37:52.546Z,88.49
2022-08-23T08:40:31.581Z,88.13
2022-08-23T08:43:17.652Z,88.26
2022-08-23T08:46:01.062Z,87.41
2022-08-23T08:48:47.436Z,86.48
2022-08-23T08:51:35.801Z,86.31
2022-08-23T08:54:11.312Z,86.30
2022-08-23T08:56:53.585Z,85.89
2022-08-23T08:59:32.126Z,85.11
2022-08-23T09:02:06.468Z,85.03
2022-08-23T09:04:55.505Z,84.95
2022-08-23T09:07:37.525Z,84.97
2022-08-23T09:10:26.151Z,84.30
2022-08-23T09:13:24.246Z,83.69
2022-08-23T09:16:03.215Z,83.42
2022-08-23T09:18:38.309Z,83.25
2022-08-23T09:21:11.977Z,83.36
2022-08-23T09:23:47.678Z,82.12
2022-08-23T09:26:40.285Z,81.95
2022-08-23T09:29:22.544Z,81.84
2022-08-23T09:31:58.500Z,82.02
2022-08-23T09:34:43.696Z,81.82
2022-08-23T09:37:20.881Z,82.13
2022-08-23T09:39:55.723Z,82.04
2022-08-23T09:42:36.632Z,81.91
2022-08-23T09:45:26.592Z,81.48
2022-08-23T09:47:58.972Z,81.44
2022-08-23T09:50:35.499Z,80.95
2022-08-23T09:53:11.561Z,80.45
2022-08-23T09:55:48.246Z,80.30
2022-08-23T09:58:25.992Z,80.23
2022-08-23T10:01:11.937Z,79.28
2022-08-23T10:03:44.847Z,79.26
2022-08-23T10:06:34.219Z,78.90
2022-08-23T10:09:10.726Z,78.54
2022-08-23T10:11:46.870Z,78.58
2022-08-23T10:14:24.308Z,78.97
2022-08-23T10:17:11.156Z,78.20
2022-08-23T10:19:50.896Z,77.73
2022-08-23T10:22:25.978Z,77.61
2022-08-23T10:25:20.692Z,77.65
2022-08-23T10:28:18.404Z,78.09
2022-08-23T10:31:03.462Z,76.88
2022-08-23T10:33:48.681Z,77.18
2022-08-23T10:36:32.110Z,77.18
2022-08-23T10:39:09.071Z,76.98
2022-08-23T10:41:52.151Z,77.23
2022-08-23T10:44:35.354Z,77.16
2022-08-23T10:47:27.488Z,77.54
2022-08-23T10:50:05.816Z,77.53
2022-08-23T10:52:47.484Z,77.52
2022-08-23T10:55:39.119Z,77.31
2022-08-23T10:58:21.858Z,76.70
2022-08-23T11:00:56.941Z,76.45
2022-08-23T11:03:33.189Z,76.62
2022-08-23T11:06:44.677Z,75.95
2022-08-23T11:09:47.757Z,76.42
2022-08-23T11:12:31.689Z,75.45
2022-08-23T11:15:19.450Z,75.73
2022-08-23T11:18:04.829Z,74.95
2022-08-23T11:21:00.929Z,75.00
2022-08-23T11:23:49.289Z,74.62
2022-08-23T11:27:06.649Z,74.66
2022-08-23T11:29:43.852Z,74.06
2022-08-23T11:32:46.137Z,73.92
2022-08-23T11:35:43.241Z,73.93
2022-08-23T11:38:17.304Z,74.13
2022-08-23T11:41:12.662Z,73.62
2022-08-23T11:43:46.485Z,72.96
2022-08-23T11:46:34.905Z,73.20
2022-08-23T11:49:42.056Z,72.46
2022-08-23T11:52:28.430Z,72.20
2022-08-23T11:55:18.609Z,72.09
2022-08-23T11:58:06.344Z,72.38
2022-08-23T12:01:07.676Z,72.27
2022-08-23T12:03:56.959Z,72.31
2022-08-23T12:06:51.067Z,71.32
2022-08-23T12:09:58.459Z,71.19
2022-08-23T12:12:39.234Z,70.84
2022-08-23T12:15:14.576Z,71.10
2022-08-23T12:18:17.337Z,70.93
2022-08-23T12:20:51.904Z,71.23
2022-08-23T12:23:24.121Z,71.35
2022-08-23T12:26:08.454Z,71.03
2022-08-23T12:28:48.069Z,70.74
2022-08-23T12:31:29.979Z,71.39
2022-08-23T12:34:13.704Z,71.02
2022-08-23T12:36:55.612Z,71.03
2022-08-23T12:39:34.592Z,71.20
2022-08-23T12:42:15.632Z,71.27
2022-08-23T12:45:00.238Z,71.31
2022-08-23T12:47:33.319Z,71.60
2022-08-23T12:50:10.674Z,71.65
2022-08-23T12:52:42.721Z,72.13
2022-08-23T12:55:18.582Z,72.23
2022-08-23T12:57:59.625Z,72.38
2022-08-23T13:00:35.477Z,73.35
2022-08-23T13:03:14.643Z,74.66
2022-08-23T13:05:52.229Z,75.50
2022-08-23T13:08:35.024Z,76.43
2022-08-23T13:11:09.467Z,77.09
2022-08-23T13:13:44.186Z,77.52
2022-08-23T13:16:33.155Z,78.09
2022-08-23T13:19:22.366Z,79.07
2022-08-23T13:22:12.085Z,79.98
2022-08-23T13:24:46.310Z,80.47
2022-08-23T13:27:23.781Z,81.14
2022-08-23T13:29:59.909Z,81.20
2022-08-23T13:32:41.786Z,81.73
2022-08-23T13:35:31.181Z,81.98
2022-08-23T13:38:11.494Z,82.02
2022-08-23T13:40:48.685Z,82.34
2022-08-23T13:43:26.320Z,83.04
2022-08-23T13:46:01.444Z,83.29
2022-08-23T13:48:35.535Z,83.56
2022-08-23T13:51:28.757Z,83.68
2022-08-23T13:54:04.027Z,83.72
2022-08-23T13:56:49.430Z,83.55
2022-08-23T13:59:31.600Z,83.65
2022-08-23T14:02:07.332Z,83.49
2022-08-23T14:04:40.336Z,83.64
2022-08-23T14:07:15.117Z,83.71
2022-08-23T14:09:47.220Z,83.82
2022-08-23T14:12:27.552Z,83.97
2022-08-23T14:15:02.152Z,84.35
2022-08-23T14:17:41.326Z,84.37
2022-08-23T14:20:44.023Z,84.35
2022-08-23T14:23:12.710Z,84.72
2022-08-23T14:25:47.228Z,84.81
2022-08-23T14:28:19.954Z,84.70
2022-08-23T14:30:52.107Z,84.71
2022-08-23T14:33:24.750Z,84.98
2022-08-23T14:35:57.385Z,85.52
2022-08-23T14:38:29.887Z,85.80
2022-08-23T14:41:04.881Z,85.83
2022-08-23T14:43:37.114Z,85.62
2022-08-23T14:46:09.188Z,85.63
2022-08-23T14:48:44.365Z,85.78
2022-08-23T14:51:25.860Z,85.73
2022-08-23T14:53:58.290Z,86.14
2022-08-23T14:56:33.647Z,86.29
2022-08-23T14:59:06.149Z,86.54
2022-08-23T15:01:39.376Z,86.89
2022-08-23T15:04:13.521Z,86.93
2022-08-23T15:07:06.959Z,87.22
2022-08-23T15:09:38.400Z,87.59
2022-08-23T15:15:04.696Z,87.53
2022-08-23T15:17:44.478Z,88.00
2022-08-23T15:20:16.550Z,87.71
2022-08-23T15:22:55.818Z,87.57
2022-08-23T15:25:35.398Z,87.56
2022-08-23T15:28:12.842Z,87.92
2022-08-23T15:30:49.715Z,88.06
2022-08-23T15:33:30.840Z,88.26
2022-08-23T15:36:07.362Z,88.29
2022-08-23T15:38:40.821Z,88.74
2022-08-23T15:41:13.159Z,88.98
2022-08-23T15:43:45.770Z,89.40
2022-08-23T15:46:23.085Z,89.23
2022-08-23T15:48:58.229Z,89.13
2022-08-23T15:51:30.224Z,89.19
2022-08-23T15:54:03.082Z,89.51
2022-08-23T15:56:41.862Z,89.83
2022-08-23T15:59:16.505Z,89.62
2022-08-23T16:01:48.860Z,89.89
2022-08-23T16:04:21.048Z,89.64
2022-08-23T16:06:53.006Z,89.98
2022-08-23T16:09:26.917Z,90.07
2022-08-23T16:12:26.853Z,90.04
2022-08-23T16:14:58.707Z,90.00
2022-08-23T16:17:30.932Z,90.08
2022-08-23T16:20:03.243Z,90.16
2022-08-23T16:22:35.113Z,90.36
2022-08-23T16:25:10.128Z,90.35
2022-08-23T16:27:42.022Z,90.29
2022-08-23T16:30:15.487Z,90.18
2022-08-23T16:32:47.599Z,90.48
2022-08-23T16:35:19.770Z,90.55
2022-08-23T16:37:51.722Z,90.53
2022-08-23T16:40:23.865Z,90.57
2022-08-23T16:42:56.480Z,90.57
2022-08-23T16:45:28.665Z,90.61
2022-08-23T16:48:00.867Z,90.75
2022-08-23T16:50:33.117Z,90.77
2022-08-23T16:53:07.386Z,90.89
2022-08-23T16:55:40.713Z,90.55
2022-08-23T16:58:13.119Z,90.32
2022-08-23T17:00:45.367Z,90.66
2022-08-23T17:03:19.034Z,90.78
2022-08-23T17:05:51.101Z,90.77
2022-08-23T17:08:23.000Z,90.65
2022-08-23T17:10:55.135Z,90.79
2022-08-23T17:13:27.654Z,90.81
2022-08-23T17:15:59.548Z,90.75
2022-08-23T17:18:33.672Z,90.52
2022-08-23T17:21:06.851Z,90.68
2022-08-23T17:23:40.628Z,90.78
2022-08-23T17:26:13.846Z,90.87
2022-08-23T17:28:46.265Z,91.03
2022-08-23T17:31:19.768Z,91.23
2022-08-23T17:33:51.751Z,91.33
2022-08-23T17:36:31.922Z,91.36
2022-08-23T17:43:39.982Z,91.53
2022-08-23T17:49:38.931Z,91.37
2022-08-23T17:52:12.276Z,91.47
2022-08-23T17:54:47.771Z,91.48
2022-08-23T17:57:24.882Z,91.60
2022-08-23T17:59:58.367Z,91.65
2022-08-23T18:02:30.473Z,91.64
2022-08-23T18:05:02.453Z,91.84
2022-08-23T18:07:34.294Z,91.56
2022-08-23T18:10:07.589Z,91.86
2022-08-23T18:12:40.151Z,91.84
2022-08-23T18:15:13.757Z,91.92
2022-08-23T18:17:46.567Z,91.99
2022-08-23T18:20:18.830Z,92.00
2022-08-23T18:22:51.157Z,91.95
2022-08-23T18:25:23.393Z,91.91
2022-08-23T18:28:12.469Z,91.93
2022-08-23T18:30:53.572Z,92.10
2022-08-23T18:33:31.445Z,92.12
2022-08-23T18:36:06.299Z,92.13
2022-08-23T18:38:38.514Z,92.37
2022-08-23T18:41:11.008Z,92.50
2022-08-23T18:43:48.018Z,92.86
2022-08-23T18:46:20.446Z,92.93
2022-08-23T18:48:54.519Z,92.88
2022-08-23T18:51:26.984Z,92.92
2022-08-23T18:54:13.532Z,93.32
2022-08-23T18:56:46.012Z,93.38
2022-08-23T18:59:20.718Z,93.54
2022-08-23T19:01:52.636Z,93.61
2022-08-23T19:04:24.576Z,93.81
2022-08-23T19:06:56.995Z,93.67
2022-08-23T19:09:29.263Z,93.66
2022-08-23T19:12:01.444Z,94.07
2022-08-23T19:14:35.811Z,94.31
2022-08-23T19:17:09.350Z,94.18
2022-08-23T19:19:41.593Z,94.47
2022-08-23T19:22:14.595Z,94.47
2022-08-23T19:24:46.580Z,94.23
2022-08-23T19:27:18.522Z,94.34
2022-08-23T19:29:51.102Z,94.65
2022-08-23T19:32:23.714Z,94.75
2022-08-23T19:34:55.650Z,94.68
2022-08-23T19:37:29.959Z,94.47
2022-08-23T19:40:02.600Z,94.95
2022-08-23T19:42:37.169Z,95.00
2022-08-23T19:45:11.253Z,95.30
2022-08-23T19:47:43.192Z,94.92
2022-08-23T19:50:15.574Z,95.11
2022-08-23T19:52:56.761Z,95.23
2022-08-23T19:55:29.519Z,95.17
2022-08-23T19:58:01.830Z,95.18
2022-08-23T20:00:34.635Z,95.26
2022-08-23T20:03:07.000Z,95.55
2022-08-23T20:05:39.380Z,95.48
2022-08-23T20:08:12.250Z,95.77
2022-08-23T20:10:46.281Z,95.80
2022-08-23T20:13:20.159Z,96.04
2022-08-23T20:15:55.991Z,96.11
2022-08-23T20:18:28.480Z,96.26
2022-08-23T20:21:01.094Z,96.52
2022-08-23T20:23:53.535Z,96.63
2022-08-23T20:26:25.805Z,96.49
2022-08-23T20:29:00.133Z,96.44
2022-08-23T20:31:35.270Z,96.41
2022-08-23T20:34:09.338Z,96.45
2022-08-23T20:36:41.677Z,96.39
2022-08-23T20:39:20.382Z,96.26
2022-08-23T20:41:54.136Z,96.40
2022-08-23T20:44:30.146Z,96.33
2022-08-23T20:47:03.372Z,96.27
2022-08-23T20:49:35.490Z,96.24
2022-08-23T20:52:08.477Z,96.47
2022-08-23T20:54:40.843Z,95.95
2022-08-23T20:57:12.814Z,96.09
2022-08-23T20:59:45.329Z,96.13
2022-08-23T21:02:17.440Z,96.50
2022-08-23T21:04:49.593Z,96.43
2022-08-23T21:07:21.713Z,96.27
2022-08-23T21:09:54.106Z,96.29
2022-08-23T21:12:26.197Z,96.63
2022-08-23T21:14:59.666Z,96.66
2022-08-23T21:17:31.820Z,96.56
2022-08-23T21:20:04.730Z,96.54
2022-08-23T21:22:40.101Z,96.44
2022-08-23T21:25:15.507Z,96.46
2022-08-23T21:27:47.299Z,96.32
2022-08-23T21:30:19.263Z,96.48
2022-08-23T21:32:51.127Z,96.35
2022-08-23T21:35:25.113Z,96.42
2022-08-23T21:37:57.087Z,96.15
2022-08-23T21:40:29.143Z,96.25
2022-08-23T21:43:01.308Z,96.30
2022-08-23T21:45:33.302Z,96.08
2022-08-23T21:48:07.274Z,96.12
2022-08-23T21:50:39.154Z,96.13
2022-08-23T21:53:11.710Z,96.13
2022-08-23T21:55:44.016Z,96.18
2022-08-23T21:58:18.290Z,96.19
2022-08-23T22:00:50.192Z,96.28
2022-08-23T22:03:22.425Z,96.26
2022-08-23T22:05:54.826Z,96.15
2022-08-23T22:08:26.719Z,96.44
2022-08-23T22:11:05.351Z,96.44
2022-08-23T22:13:39.148Z,96.44
2022-08-23T22:16:12.047Z,96.42
2022-08-23T22:18:44.071Z,96.64
2022-08-23T22:21:16.224Z,96.49
2022-08-23T22:23:48.241Z,96.62
2022-08-23T22:26:20.125Z,96.62
2022-08-23T22:28:51.989Z,96.69
2022-08-23T22:31:24.321Z,96.79
2022-08-23T22:33:56.410Z,96.73
2022-08-23T22:36:28.365Z,96.62
2022-08-23T22:39:01.009Z,96.70
2022-08-23T22:41:33.811Z,96.85
2022-08-23T22:44:06.894Z,96.95
2022-08-23T22:46:38.803Z,96.85
2022-08-23T22:49:11.198Z,96.72
2022-08-23T22:51:43.315Z,96.89
2022-08-23T22:54:15.453Z,96.85
2022-08-23T22:56:49.088Z,96.78
2022-08-23T22:59:22.785Z,96.87
2022-08-23T23:01:59.893Z,96.70
2022-08-23T23:04:35.787Z,96.81
2022-08-23T23:07:07.725Z,96.81
2022-08-23T23:09:39.545Z,96.72
2022-08-23T23:12:11.598Z,96.83
2022-08-23T23:14:43.451Z,96.94
2022-08-23T23:17:18.308Z,97.03
2022-08-23T23:20:07.851Z,96.89
2022-08-23T23:22:39.750Z,96.88
2022-08-23T23:25:11.838Z,96.86
2022-08-23T23:27:43.995Z,96.82
2022-08-23T23:30:19.830Z,96.83
2022-08-23T23:32:52.663Z,96.85
2022-08-23T23:35:24.637Z,96.81
2022-08-23T23:37:57.085Z,96.86
2022-08-23T23:40:30.238Z,97.03
2022-08-23T23:43:02.760Z,96.96
2022-08-23T23:45:34.952Z,97.17
2022-08-23T23:48:08.434Z,97.29
2022-08-23T23:50:46.652Z,97.46
2022-08-23T23:53:20.629Z,97.62
2022-08-23T23:56:01.895Z,97.74
2022-08-23T23:58:34.556Z,98.04
